createdAt,value
2022-10-22T00:00:05.689Z,100659.09
2022-10-22T00:01:38.828Z,100665.16
2022-10-22T00:03:11.203Z,100654.63
2022-10-22T00:06:19.698Z,100665.31
2022-10-22T00:07:51.327Z,100668.81
2022-10-22T00:09:22.960Z,100660.97
2022-10-22T00:10:56.061Z,100669.00
2022-10-22T00:12:27.936Z,100666.47
2022-10-22T00:13:59.597Z,100666.47
2022-10-22T00:15:31.209Z,100670.06
2022-10-22T00:17:04.221Z,100666.56
2022-10-22T00:18:38.466Z,100670.13
2022-10-22T00:20:10.969Z,100669.28
2022-10-22T00:21:42.600Z,100663.03
2022-10-22T00:23:14.198Z,100675.28
2022-10-22T00:24:45.798Z,100662.75
2022-10-22T00:26:18.740Z,100674.91
2022-10-22T00:27:50.413Z,100676.63
2022-10-22T00:29:23.580Z,100673.09
2022-10-22T00:30:56.685Z,100671.22
2022-10-22T00:32:28.294Z,100659.69
2022-10-22T00:34:01.433Z,100666.69
2022-10-22T00:35:33.449Z,100669.44
2022-10-22T00:37:05.239Z,100664.22
2022-10-22T00:38:36.838Z,100663.28
2022-10-22T00:40:10.231Z,100670.28
2022-10-22T00:41:43.717Z,100669.34
2022-10-22T00:43:17.797Z,100669.34
2022-10-22T00:45:04.627Z,100670.19
2022-10-22T00:46:36.222Z,100663.09
2022-10-22T00:48:10.531Z,100663.88
2022-10-22T00:49:42.891Z,100674.47
2022-10-22T00:51:14.795Z,100665.75
2022-10-22T00:52:47.479Z,100670.19
2022-10-22T00:54:19.126Z,100664.91
2022-10-22T00:55:53.663Z,100663.19
2022-10-22T00:57:27.729Z,100664.97
2022-10-22T00:59:02.201Z,100656.19
2022-10-22T01:00:33.955Z,100651.72
2022-10-22T01:02:05.692Z,100650.78
2022-10-22T01:03:37.514Z,100657.03
2022-10-22T01:05:09.842Z,100666.00
2022-10-22T01:06:41.585Z,100655.41
2022-10-22T01:08:25.238Z,100659.94
2022-10-22T01:10:07.923Z,100661.91
2022-10-22T01:11:52.618Z,100660.09
2022-10-22T01:13:36.592Z,100668.91
2022-10-22T01:15:24.509Z,100668.91
2022-10-22T01:17:05.076Z,100672.50
2022-10-22T01:18:45.405Z,100657.38
2022-10-22T01:20:37.818Z,100648.47
2022-10-22T01:22:16.782Z,100653.78
2022-10-22T01:24:17.205Z,100658.22
2022-10-22T01:25:58.397Z,100645.06
2022-10-22T01:27:49.104Z,100655.75
2022-10-22T01:29:27.523Z,100644.28
2022-10-22T01:31:01.613Z,100648.00
2022-10-22T01:32:39.820Z,100641.00
2022-10-22T01:34:14.164Z,100646.38
2022-10-22T01:35:46.015Z,100646.28
2022-10-22T01:37:20.633Z,100639.13
2022-10-22T01:38:53.413Z,100650.56
2022-10-22T01:40:26.266Z,100640.91
2022-10-22T01:41:58.281Z,100641.84
2022-10-22T01:43:29.872Z,100642.69
2022-10-22T01:45:10.138Z,100628.50
2022-10-22T01:46:41.901Z,100644.50
2022-10-22T01:48:34.712Z,100650.75
2022-10-22T01:50:18.583Z,100642.09
2022-10-22T01:52:02.845Z,100647.31
2022-10-22T01:55:25.570Z,100639.72
2022-10-22T01:57:07.387Z,100642.34
2022-10-22T01:58:44.128Z,100645.09
2022-10-22T02:00:18.975Z,100645.00
2022-10-22T02:01:59.524Z,100636.19
2022-10-22T02:03:39.074Z,100640.56
2022-10-22T02:05:16.655Z,100638.78
2022-10-22T02:06:51.453Z,100642.19
2022-10-22T02:08:27.045Z,100635.00
2022-10-22T02:10:00.600Z,100633.28
2022-10-22T02:11:32.367Z,100642.97
2022-10-22T02:13:08.263Z,100636.63
2022-10-22T02:14:44.004Z,100641.06
2022-10-22T02:16:23.811Z,100646.38
2022-10-22T02:17:58.338Z,100645.44
2022-10-22T02:19:38.520Z,100648.94
2022-10-22T02:21:10.442Z,100638.25
2022-10-22T02:22:42.871Z,100648.00
2022-10-22T02:24:15.011Z,100653.31
2022-10-22T02:25:52.157Z,100653.47
2022-10-22T02:27:30.334Z,100648.25
2022-10-22T02:29:08.344Z,100647.41
2022-10-22T02:30:44.324Z,100656.28
2022-10-22T02:32:22.985Z,100649.38
2022-10-22T02:33:57.804Z,100650.47
2022-10-22T02:35:30.601Z,100651.44
2022-10-22T02:37:04.481Z,100649.72
2022-10-22T02:38:37.205Z,100649.72
2022-10-22T02:40:10.480Z,100648.88
2022-10-22T02:41:42.489Z,100657.84
2022-10-22T02:43:14.124Z,100656.31
2022-10-22T02:44:45.754Z,100668.78
2022-10-22T02:46:17.449Z,100659.88
2022-10-22T02:47:50.569Z,100661.69
2022-10-22T02:49:22.271Z,100664.41
2022-10-22T02:50:53.847Z,100666.13
2022-10-22T02:52:25.433Z,100665.34
2022-10-22T02:53:57.073Z,100662.69
2022-10-22T02:55:28.826Z,100667.91
2022-10-22T02:57:00.435Z,100661.69
2022-10-22T02:58:32.023Z,100661.69
2022-10-22T03:00:04.648Z,100667.06
2022-10-22T03:01:36.428Z,100659.31
2022-10-22T03:03:09.434Z,100662.13
2022-10-22T03:04:41.057Z,100669.31
2022-10-22T03:06:14.046Z,100665.88
2022-10-22T03:07:45.755Z,100659.81
2022-10-22T03:09:21.262Z,100663.41
2022-10-22T03:10:55.740Z,100663.41
2022-10-22T03:12:27.454Z,100657.06
2022-10-22T03:13:59.065Z,100665.97
2022-10-22T03:15:30.702Z,100665.09
2022-10-22T03:17:02.336Z,100664.34
2022-10-22T03:18:35.420Z,100663.56
2022-10-22T03:20:08.113Z,100664.50
2022-10-22T03:21:42.660Z,100664.59
2022-10-22T03:23:16.818Z,100663.75
2022-10-22T03:24:51.049Z,100666.47
2022-10-22T03:26:23.725Z,100670.94
2022-10-22T03:28:00.794Z,100664.78
2022-10-22T03:29:35.994Z,100664.84
2022-10-22T03:31:07.677Z,100671.84
2022-10-22T03:32:39.381Z,100670.16
2022-10-22T03:34:13.412Z,100678.09
2022-10-22T03:35:47.397Z,100680.66
2022-10-22T03:37:19.505Z,100677.94
2022-10-22T03:38:51.207Z,100674.34
2022-10-22T03:40:23.000Z,100671.63
2022-10-22T03:41:54.869Z,100674.16
2022-10-22T03:43:26.779Z,100669.78
2022-10-22T03:44:58.354Z,100668.97
2022-10-22T03:46:30.069Z,100676.72
2022-10-22T03:48:01.768Z,100680.31
2022-10-22T03:49:35.225Z,100689.97
2022-10-22T03:51:07.582Z,100680.38
2022-10-22T03:52:40.178Z,100687.50
2022-10-22T03:54:11.775Z,100691.09
2022-10-22T03:55:43.389Z,100687.59
2022-10-22T03:57:15.227Z,100693.81
2022-10-22T03:58:46.819Z,100691.16
2022-10-22T04:00:18.857Z,100693.81
2022-10-22T04:01:50.496Z,100685.94
2022-10-22T04:03:22.072Z,100689.53
2022-10-22T04:04:55.037Z,100688.53
2022-10-22T04:06:26.684Z,100699.13
2022-10-22T04:07:58.270Z,100692.97
2022-10-22T04:09:31.213Z,100698.25
2022-10-22T04:11:03.217Z,100693.81
2022-10-22T04:12:34.821Z,100682.38
2022-10-22T04:14:06.419Z,100696.63
2022-10-22T04:15:38.138Z,100687.75
2022-10-22T04:17:09.842Z,100703.63
2022-10-22T04:18:43.003Z,100708.94
2022-10-22T04:20:16.054Z,100708.16
2022-10-22T04:21:47.634Z,100722.31
2022-10-22T04:23:19.368Z,100716.09
2022-10-22T04:26:27.517Z,100717.97
2022-10-22T04:27:59.170Z,100710.81
2022-10-22T04:29:30.772Z,100714.31
2022-10-22T04:31:08.276Z,100728.41
2022-10-22T04:32:39.852Z,100727.63
2022-10-22T04:34:11.507Z,100721.53
2022-10-22T04:35:44.614Z,100730.50
2022-10-22T04:37:16.243Z,100726.16
2022-10-22T04:38:51.990Z,100724.44
2022-10-22T04:40:23.727Z,100728.13
2022-10-22T04:41:55.323Z,100729.97
2022-10-22T04:43:27.032Z,100724.75
2022-10-22T04:44:58.627Z,100725.75
2022-10-22T04:46:33.696Z,100728.56
2022-10-22T04:48:06.011Z,100725.22
2022-10-22T04:49:37.628Z,100723.63
2022-10-22T04:51:13.138Z,100716.63
2022-10-22T04:52:44.729Z,100721.06
2022-10-22T04:54:16.398Z,100725.56
2022-10-22T04:55:48.011Z,100719.50
2022-10-22T04:57:19.641Z,100729.22
2022-10-22T04:58:53.846Z,100734.50
2022-10-22T05:00:25.452Z,100730.16
2022-10-22T05:01:57.058Z,100732.88
2022-10-22T05:03:28.652Z,100736.38
2022-10-22T05:05:00.245Z,100745.19
2022-10-22T05:06:35.233Z,100741.69
2022-10-22T05:08:06.811Z,100742.53
2022-10-22T05:09:38.461Z,100744.25
2022-10-22T05:11:14.484Z,100737.00
2022-10-22T05:12:46.073Z,100743.06
2022-10-22T05:14:19.483Z,100743.94
2022-10-22T05:15:51.102Z,100746.59
2022-10-22T05:17:22.710Z,100743.06
2022-10-22T05:18:54.392Z,100750.09
2022-10-22T05:20:26.026Z,100751.78
2022-10-22T05:22:01.138Z,100755.38
2022-10-22T05:23:32.745Z,100750.09
2022-10-22T05:25:05.049Z,100753.59
2022-10-22T05:26:36.796Z,100750.94
2022-10-22T05:28:08.390Z,100751.03
2022-10-22T05:29:40.411Z,100755.44
2022-10-22T05:31:13.503Z,100751.09
2022-10-22T05:32:45.182Z,100759.09
2022-10-22T05:34:17.263Z,100764.41
2022-10-22T05:35:49.064Z,100753.81
2022-10-22T05:37:22.032Z,100760.81
2022-10-22T05:38:54.196Z,100761.69
2022-10-22T05:40:30.917Z,100765.19
2022-10-22T05:42:03.157Z,100766.03
2022-10-22T05:43:35.266Z,100773.81
2022-10-22T05:45:08.170Z,100770.22
2022-10-22T05:46:40.516Z,100764.91
2022-10-22T05:48:12.130Z,100763.06
2022-10-22T05:49:43.736Z,100760.31
2022-10-22T05:51:15.461Z,100775.28
2022-10-22T05:52:48.434Z,100781.34
2022-10-22T05:54:22.063Z,100781.44
2022-10-22T05:55:53.673Z,100785.78
2022-10-22T05:57:25.304Z,100781.34
2022-10-22T05:58:57.017Z,100786.63
2022-10-22T06:00:28.713Z,100791.00
2022-10-22T06:02:00.425Z,100792.88
2022-10-22T06:03:32.799Z,100792.88
2022-10-22T06:05:04.713Z,100785.94
2022-10-22T06:06:39.513Z,100788.75
2022-10-22T06:08:18.214Z,100788.84
2022-10-22T06:09:51.092Z,100803.94
2022-10-22T06:11:23.797Z,100798.72
2022-10-22T06:12:55.516Z,100786.44
2022-10-22T06:14:28.083Z,100795.22
2022-10-22T06:15:59.661Z,100796.16
2022-10-22T06:17:31.367Z,100794.44
2022-10-22T06:19:03.281Z,100797.09
2022-10-22T06:20:35.242Z,100798.03
2022-10-22T06:22:06.884Z,100806.03
2022-10-22T06:23:40.837Z,100809.63
2022-10-22T06:25:14.086Z,100801.75
2022-10-22T06:26:58.614Z,100813.19
2022-10-22T06:28:30.419Z,100814.22
2022-10-22T06:30:02.224Z,100828.41
2022-10-22T06:31:36.904Z,100821.41
2022-10-22T06:33:08.530Z,100833.69
2022-10-22T06:34:40.197Z,100828.28
2022-10-22T06:36:14.157Z,100826.44
2022-10-22T06:37:47.415Z,100827.22
2022-10-22T06:39:20.441Z,100830.56
2022-10-22T06:40:52.055Z,100835.72
2022-10-22T06:42:23.841Z,100838.28
2022-10-22T06:43:57.176Z,100836.31
2022-10-22T06:45:28.971Z,100838.72
2022-10-22T06:47:00.638Z,100849.91
2022-10-22T06:48:32.292Z,100842.63
2022-10-22T06:50:04.320Z,100847.69
2022-10-22T06:51:35.951Z,100852.84
2022-10-22T06:53:07.711Z,100854.47
2022-10-22T06:54:43.461Z,100854.31
2022-10-22T06:56:17.519Z,100861.22
2022-10-22T06:57:49.375Z,100866.38
2022-10-22T06:59:21.000Z,100863.50
2022-10-22T07:01:01.032Z,100868.56
2022-10-22T07:02:32.492Z,100868.44
2022-10-22T07:04:05.459Z,100866.34
2022-10-22T07:05:37.273Z,100867.91
2022-10-22T07:07:08.901Z,100868.66
2022-10-22T07:08:41.676Z,100872.84
2022-10-22T07:10:14.994Z,100869.97
2022-10-22T07:11:46.758Z,100876.91
2022-10-22T07:13:18.403Z,100871.44
2022-10-22T07:14:50.111Z,100883.63
2022-10-22T07:16:22.177Z,100876.47
2022-10-22T07:17:53.821Z,100885.13
2022-10-22T07:19:25.448Z,100886.75
2022-10-22T07:20:57.234Z,100897.28
2022-10-22T07:22:28.977Z,100884.72
2022-10-22T07:24:00.763Z,100892.47
2022-10-22T07:25:33.734Z,100898.63
2022-10-22T07:27:09.378Z,100895.03
2022-10-22T07:28:43.837Z,100903.78
2022-10-22T07:30:15.571Z,100907.38
2022-10-22T07:31:47.186Z,100904.63
2022-10-22T07:33:18.775Z,100905.41
2022-10-22T07:34:50.393Z,100907.03
2022-10-22T07:36:22.036Z,100913.19
2022-10-22T07:37:53.719Z,100916.63
2022-10-22T07:39:25.895Z,100916.63
2022-10-22T07:40:59.038Z,100914.84
2022-10-22T07:42:30.700Z,100919.34
2022-10-22T07:44:02.472Z,100920.38
2022-10-22T07:45:34.115Z,100918.81
2022-10-22T07:47:05.835Z,100925.13
2022-10-22T07:48:37.926Z,100928.72
2022-10-22T07:50:09.959Z,100927.00
2022-10-22T07:51:41.789Z,100932.31
2022-10-22T07:53:13.406Z,100927.78
2022-10-22T07:54:45.013Z,100932.16
2022-10-22T07:56:18.037Z,100937.28
2022-10-22T07:57:50.818Z,100935.44
2022-10-22T07:59:22.617Z,100944.94
2022-10-22T08:00:56.301Z,100941.16
2022-10-22T08:02:27.911Z,100942.88
2022-10-22T08:03:59.642Z,100954.25
2022-10-22T08:05:31.313Z,100943.56
2022-10-22T08:07:02.956Z,100954.16
2022-10-22T08:08:34.836Z,100962.13
2022-10-22T08:10:08.099Z,100946.06
2022-10-22T08:11:41.083Z,100958.13
2022-10-22T08:13:12.808Z,100961.56
2022-10-22T08:14:44.410Z,100964.06
2022-10-22T08:16:16.057Z,100965.84
2022-10-22T08:17:47.712Z,100966.72
2022-10-22T08:19:21.112Z,100971.94
2022-10-22T08:20:53.493Z,100971.94
2022-10-22T08:22:25.166Z,100972.63
2022-10-22T08:23:56.827Z,100977.56
2022-10-22T08:25:28.526Z,100981.00
2022-10-22T08:27:01.503Z,100977.41
2022-10-22T08:28:36.894Z,100987.00
2022-10-22T08:30:09.721Z,100979.81
2022-10-22T08:31:41.385Z,100978.81
2022-10-22T08:33:12.996Z,100983.09
2022-10-22T08:34:44.600Z,100985.81
2022-10-22T08:36:16.226Z,100981.09
2022-10-22T08:37:47.865Z,100987.88
2022-10-22T08:39:19.480Z,100989.59
2022-10-22T08:40:54.610Z,100991.88
2022-10-22T08:42:49.321Z,100995.22
2022-10-22T08:44:46.673Z,100992.34
2022-10-22T08:46:44.762Z,100996.53
2022-10-22T08:48:28.113Z,100992.75
2022-10-22T08:50:00.484Z,100998.66
2022-10-22T08:51:35.829Z,101000.28
2022-10-22T08:53:13.894Z,100996.59
2022-10-22T08:54:51.520Z,101002.94
2022-10-22T08:56:23.664Z,101003.50
2022-10-22T08:58:01.966Z,101003.44
2022-10-22T08:59:42.105Z,101013.88
2022-10-22T09:01:16.400Z,101010.81
2022-10-22T09:02:59.388Z,101019.19
2022-10-22T09:04:37.734Z,101010.19
2022-10-22T09:06:14.006Z,101010.81
2022-10-22T09:07:50.048Z,101013.09
2022-10-22T09:09:23.934Z,101015.75
2022-10-22T09:11:01.500Z,101010.44
2022-10-22T09:12:33.562Z,101025.25
2022-10-22T09:14:11.951Z,101017.28
2022-10-22T09:15:46.490Z,101023.28
2022-10-22T09:17:27.128Z,101019.00
2022-10-22T09:19:07.755Z,101028.88
2022-10-22T09:20:49.293Z,101033.41
2022-10-22T09:22:30.305Z,101028.25
2022-10-22T09:24:11.490Z,101025.59
2022-10-22T09:25:45.173Z,101029.63
2022-10-22T09:27:19.507Z,101031.34
2022-10-22T09:28:52.049Z,101028.78
2022-10-22T09:30:26.964Z,101030.50
2022-10-22T09:31:58.674Z,101031.34
2022-10-22T09:33:31.703Z,101032.84
2022-10-22T09:35:03.565Z,101029.00
2022-10-22T09:36:37.820Z,101036.03
2022-10-22T09:38:09.477Z,101036.88
2022-10-22T09:39:44.853Z,101033.38
2022-10-22T09:41:17.718Z,101034.91
2022-10-22T09:42:49.697Z,101043.44
2022-10-22T09:44:21.585Z,101042.50
2022-10-22T09:45:59.436Z,101042.50
2022-10-22T09:47:43.668Z,101038.13
2022-10-22T09:49:33.277Z,101037.69
2022-10-22T09:51:12.868Z,101041.81
2022-10-22T09:52:44.752Z,101045.97
2022-10-22T09:54:19.654Z,101050.44
2022-10-22T09:55:53.711Z,101045.13
2022-10-22T09:57:27.385Z,101052.22
2022-10-22T09:58:59.245Z,101056.59
2022-10-22T10:00:30.996Z,101057.38
2022-10-22T10:02:26.652Z,101058.91
2022-10-22T10:04:09.795Z,101064.81
2022-10-22T10:05:43.940Z,101065.38
2022-10-22T10:07:18.931Z,101061.34
2022-10-22T10:08:50.933Z,101065.31
2022-10-22T10:10:34.629Z,101061.63
2022-10-22T10:12:17.025Z,101077.41
2022-10-22T10:13:59.733Z,101069.50
2022-10-22T10:15:40.097Z,101074.75
2022-10-22T10:17:24.117Z,101078.91
2022-10-22T10:19:17.424Z,101067.63
2022-10-22T10:20:57.484Z,101079.13
2022-10-22T10:22:47.081Z,101079.75
2022-10-22T10:24:27.633Z,101089.75
2022-10-22T10:26:06.341Z,101079.63
2022-10-22T10:27:42.883Z,101082.00
2022-10-22T10:29:29.781Z,101079.44
2022-10-22T10:31:11.842Z,101091.38
2022-10-22T10:32:55.134Z,101093.19
2022-10-22T10:34:35.476Z,101091.38
2022-10-22T10:36:16.633Z,101090.41
2022-10-22T10:38:02.343Z,101098.28
2022-10-22T10:39:44.231Z,101090.94
2022-10-22T10:41:29.038Z,101100.72
2022-10-22T10:43:06.888Z,101106.28
2022-10-22T10:44:59.610Z,101106.28
2022-10-22T10:46:43.539Z,101101.81
2022-10-22T10:48:48.448Z,101101.25
2022-10-22T10:50:26.776Z,101102.97
2022-10-22T10:52:06.491Z,101098.50
2022-10-22T10:53:52.077Z,101103.81
2022-10-22T10:55:29.807Z,101111.59
2022-10-22T10:57:08.134Z,101116.91
2022-10-22T10:58:49.963Z,101103.81
2022-10-22T11:00:22.386Z,101112.16
2022-10-22T11:02:09.825Z,101104.34
2022-10-22T11:04:15.822Z,101108.38
2022-10-22T11:05:54.002Z,101116.13
2022-10-22T11:07:45.465Z,101111.44
2022-10-22T11:09:24.570Z,101115.56
2022-10-22T11:11:01.175Z,101124.84
2022-10-22T11:12:39.637Z,101127.44
2022-10-22T11:14:16.952Z,101117.34
2022-10-22T11:15:55.541Z,101120.44
2022-10-22T11:17:35.536Z,101127.75
2022-10-22T11:19:22.962Z,101119.88
2022-10-22T11:21:17.936Z,101125.69
2022-10-22T11:23:18.280Z,101120.00
2022-10-22T11:24:53.707Z,101122.69
2022-10-22T11:26:37.134Z,101126.97
2022-10-22T11:29:54.099Z,101125.03
2022-10-22T11:31:26.835Z,101112.50
2022-10-22T11:33:01.977Z,101125.34
2022-10-22T11:34:42.300Z,101123.84
2022-10-22T11:36:15.797Z,101112.81
2022-10-22T11:37:48.287Z,101121.25
2022-10-22T11:39:38.109Z,101115.47
2022-10-22T11:41:11.736Z,101117.00
2022-10-22T11:42:47.908Z,101114.34
2022-10-22T11:44:23.179Z,101115.06
2022-10-22T11:46:01.977Z,101111.47
2022-10-22T11:47:36.003Z,101112.63
2022-10-22T11:49:19.557Z,101110.69
2022-10-22T11:50:57.427Z,101109.84
2022-10-22T11:52:40.773Z,101111.38
2022-10-22T11:54:42.204Z,101110.16
2022-10-22T11:56:24.925Z,101103.38
2022-10-22T11:57:59.173Z,101108.03
2022-10-22T11:59:39.338Z,101108.25
2022-10-22T12:01:41.594Z,101111.09
2022-10-22T12:03:17.844Z,101109.13
2022-10-22T12:04:49.563Z,101111.56
2022-10-22T12:06:25.088Z,101105.38
2022-10-22T12:08:00.008Z,101110.06
2022-10-22T12:09:34.265Z,101104.16
2022-10-22T12:11:17.037Z,101103.03
2022-10-22T12:12:55.781Z,101099.50
2022-10-22T12:14:32.564Z,101104.06
2022-10-22T12:16:05.331Z,101096.75
2022-10-22T12:17:37.000Z,101095.50
2022-10-22T12:19:14.929Z,101095.31
2022-10-22T12:20:50.615Z,101094.25
2022-10-22T12:22:27.213Z,101101.56
2022-10-22T12:23:59.507Z,101096.44
2022-10-22T12:25:35.606Z,101101.56
2022-10-22T12:27:22.343Z,101097.78
2022-10-22T12:28:58.589Z,101099.88
2022-10-22T12:30:34.475Z,101090.16
2022-10-22T12:32:06.471Z,101086.47
2022-10-22T12:33:38.787Z,101086.38
2022-10-22T12:35:16.755Z,101096.25
2022-10-22T12:36:50.039Z,101091.88
2022-10-22T12:38:25.458Z,101085.78
2022-10-22T12:39:57.151Z,101085.78
2022-10-22T12:41:34.476Z,101088.84
2022-10-22T12:43:12.439Z,101089.28
2022-10-22T12:44:44.938Z,101086.25
2022-10-22T12:46:17.020Z,101082.53
2022-10-22T12:47:50.256Z,101084.06
2022-10-22T12:49:25.271Z,101079.47
2022-10-22T12:50:59.422Z,101078.16
2022-10-22T12:52:31.107Z,101078.91
2022-10-22T12:54:08.246Z,101084.16
2022-10-22T12:55:40.047Z,101081.91
2022-10-22T12:57:14.685Z,101076.22
2022-10-22T12:58:51.867Z,101080.72
2022-10-22T13:00:26.765Z,101079.16
2022-10-22T13:01:58.929Z,101082.19
2022-10-22T13:03:34.778Z,101078.56
2022-10-22T13:05:21.712Z,101074.28
2022-10-22T13:07:05.977Z,101086.31
2022-10-22T13:08:38.839Z,101079.63
2022-10-22T13:10:20.073Z,101093.09
2022-10-22T13:11:54.183Z,101085.56
2022-10-22T13:13:30.975Z,101086.44
2022-10-22T13:15:22.941Z,101088.28
2022-10-22T13:17:12.138Z,101091.69
2022-10-22T13:18:45.171Z,101088.38
2022-10-22T13:20:20.340Z,101086.03
2022-10-22T13:21:54.021Z,101083.47
2022-10-22T13:23:28.085Z,101082.38
2022-10-22T13:25:21.051Z,101088.56
2022-10-22T13:26:54.528Z,101093.19
2022-10-22T13:28:27.027Z,101092.63
2022-10-22T13:30:02.858Z,101091.13
2022-10-22T13:31:37.685Z,101089.44
2022-10-22T13:33:28.769Z,101091.22
2022-10-22T13:35:02.215Z,101085.97
2022-10-22T13:36:34.023Z,101091.53
2022-10-22T13:38:11.536Z,101093.44
2022-10-22T13:39:43.144Z,101095.91
2022-10-22T13:41:23.088Z,101096.75
2022-10-22T13:42:56.078Z,101095.78
2022-10-22T13:44:27.682Z,101096.47
2022-10-22T13:46:00.301Z,101089.97
2022-10-22T13:47:33.001Z,101093.59
2022-10-22T13:49:04.818Z,101086.66
2022-10-22T13:50:36.421Z,101090.59
2022-10-22T13:52:10.598Z,101091.75
2022-10-22T13:53:43.602Z,101090.53
2022-10-22T13:55:17.800Z,101098.88
2022-10-22T13:56:49.436Z,101104.59
2022-10-22T13:58:26.589Z,101097.34
2022-10-22T13:59:58.191Z,101088.59
2022-10-22T14:01:30.093Z,101102.69
2022-10-22T14:03:01.757Z,101091.81
2022-10-22T14:04:38.035Z,101096.94
2022-10-22T14:06:13.170Z,101099.50
2022-10-22T14:07:45.322Z,101096.94
2022-10-22T14:09:17.991Z,101098.63
2022-10-22T14:10:49.604Z,101091.63
2022-10-22T14:12:21.380Z,101093.53
2022-10-22T14:13:54.361Z,101091.72
2022-10-22T14:15:28.618Z,101082.88
2022-10-22T14:17:00.252Z,101087.34
2022-10-22T14:18:33.056Z,101083.81
2022-10-22T14:20:05.250Z,101079.53
2022-10-22T14:21:38.014Z,101084.03
2022-10-22T14:23:14.590Z,101086.88
2022-10-22T14:24:47.379Z,101080.50
2022-10-22T14:26:22.530Z,101077.72
2022-10-22T14:27:54.712Z,101080.28
2022-10-22T14:29:27.686Z,101088.19
2022-10-22T14:30:59.576Z,101082.63
2022-10-22T14:32:31.320Z,101085.84
2022-10-22T14:34:02.948Z,101081.06
2022-10-22T14:35:34.614Z,101087.56
2022-10-22T14:37:13.403Z,101091.19
2022-10-22T14:38:46.895Z,101088.53
2022-10-22T14:40:20.601Z,101096.31
2022-10-22T14:41:52.350Z,101090.03
2022-10-22T14:43:26.343Z,101094.41
2022-10-22T14:44:59.304Z,101089.38
2022-10-22T14:46:31.835Z,101086.06
2022-10-22T14:48:03.903Z,101088.94
2022-10-22T14:49:35.593Z,101096.19
2022-10-22T14:51:07.774Z,101085.81
2022-10-22T14:52:40.095Z,101091.34
2022-10-22T14:54:12.217Z,101093.50
2022-10-22T14:55:46.998Z,101087.72
2022-10-22T14:57:18.622Z,101096.84
2022-10-22T14:58:50.383Z,101089.63
2022-10-22T15:00:23.771Z,101095.81
2022-10-22T15:01:55.537Z,101087.81
2022-10-22T15:03:27.165Z,101098.38
2022-10-22T15:04:58.882Z,101100.75
2022-10-22T15:06:30.704Z,101090.06
2022-10-22T15:08:02.534Z,101092.84
2022-10-22T15:09:34.141Z,101089.53
2022-10-22T15:11:07.682Z,101093.44
2022-10-22T15:12:39.480Z,101103.66
2022-10-22T15:14:11.248Z,101100.44
2022-10-22T15:15:44.285Z,101102.34
2022-10-22T15:17:17.175Z,101105.22
2022-10-22T15:18:48.950Z,101108.94
2022-10-22T15:20:20.763Z,101101.03
2022-10-22T15:21:52.574Z,101097.63
2022-10-22T15:23:24.562Z,101093.16
2022-10-22T15:24:56.176Z,101101.34
2022-10-22T15:26:29.014Z,101104.09
2022-10-22T15:28:04.649Z,101098.88
2022-10-22T15:29:40.044Z,101101.63
2022-10-22T15:31:14.968Z,101107.19
2022-10-22T15:32:46.676Z,101101.09
2022-10-22T15:34:20.719Z,101115.34
2022-10-22T15:35:52.468Z,101103.09
2022-10-22T15:37:24.247Z,101114.69
2022-10-22T15:38:55.868Z,101116.56
2022-10-22T15:40:27.745Z,101115.91
2022-10-22T15:42:00.289Z,101117.84
2022-10-22T15:43:32.280Z,101124.09
2022-10-22T15:45:04.469Z,101123.34
2022-10-22T15:46:37.569Z,101121.72
2022-10-22T15:48:11.394Z,101130.66
2022-10-22T15:49:45.792Z,101119.16
2022-10-22T15:51:19.273Z,101121.91
2022-10-22T15:52:50.966Z,101120.19
2022-10-22T15:54:25.600Z,101120.28
2022-10-22T15:55:57.177Z,101130.09
2022-10-22T15:57:28.795Z,101126.56
2022-10-22T15:59:04.827Z,101125.72
2022-10-22T16:00:36.515Z,101129.44
2022-10-22T16:02:10.705Z,101125.94
2022-10-22T16:03:42.318Z,101130.31
2022-10-22T16:05:13.986Z,101131.16
2022-10-22T16:06:48.195Z,101119.53
2022-10-22T16:08:19.878Z,101138.00
2022-10-22T16:09:54.785Z,101127.25
2022-10-22T16:11:28.837Z,101126.19
2022-10-22T16:13:00.556Z,101133.34
2022-10-22T16:14:32.197Z,101129.06
2022-10-22T16:16:06.642Z,101133.63
2022-10-22T16:17:39.654Z,101129.31
2022-10-22T16:19:12.956Z,101127.84
2022-10-22T16:20:44.706Z,101132.50
2022-10-22T16:22:16.377Z,101127.34
2022-10-22T16:23:48.319Z,101125.81
2022-10-22T16:25:19.939Z,101122.44
2022-10-22T16:26:53.075Z,101130.69
2022-10-22T16:28:24.735Z,101129.94
2022-10-22T16:29:56.375Z,101125.72
2022-10-22T16:31:28.316Z,101128.69
2022-10-22T16:33:03.424Z,101131.53
2022-10-22T16:34:35.361Z,101135.34
2022-10-22T16:36:07.917Z,101126.75
2022-10-22T16:37:39.845Z,101131.53
2022-10-22T16:39:12.244Z,101137.97
2022-10-22T16:40:44.255Z,101138.25
2022-10-22T16:42:15.957Z,101125.25
2022-10-22T16:43:49.491Z,101143.97
2022-10-22T16:45:21.113Z,101139.59
2022-10-22T16:46:52.773Z,101144.13
2022-10-22T16:48:25.805Z,101140.63
2022-10-22T16:50:00.725Z,101135.38
2022-10-22T16:51:32.787Z,101142.41
2022-10-22T16:53:04.445Z,101147.75
2022-10-22T16:54:36.188Z,101146.97
2022-10-22T16:56:08.915Z,101147.03
2022-10-22T16:57:40.823Z,101153.25
2022-10-22T16:59:12.633Z,101154.09
2022-10-22T17:00:44.329Z,101150.59
2022-10-22T17:02:16.088Z,101152.28
2022-10-22T17:03:49.065Z,101157.66
2022-10-22T17:05:21.541Z,101155.97
2022-10-22T17:06:53.202Z,101153.38
2022-10-22T17:08:25.003Z,101150.84
2022-10-22T17:09:56.635Z,101155.47
2022-10-22T17:11:30.196Z,101153.09
2022-10-22T17:13:02.229Z,101165.69
2022-10-22T17:14:34.326Z,101162.28
2022-10-22T17:16:08.917Z,101158.78
2022-10-22T17:17:40.840Z,101159.72
2022-10-22T17:19:15.834Z,101163.34
2022-10-22T17:20:47.476Z,101161.53
2022-10-22T17:22:19.129Z,101158.00
2022-10-22T17:23:54.633Z,101162.38
2022-10-22T17:25:36.112Z,101161.53
2022-10-22T17:27:07.845Z,101162.38
2022-10-22T17:28:39.613Z,101169.50
2022-10-22T17:30:16.466Z,101169.59
2022-10-22T17:31:48.081Z,101167.97
2022-10-22T17:33:19.734Z,101166.34
2022-10-22T17:34:52.740Z,101162.72
2022-10-22T17:36:25.824Z,101164.63
2022-10-22T17:37:57.438Z,101163.94
2022-10-22T17:39:29.103Z,101169.25
2022-10-22T17:41:04.343Z,101170.19
2022-10-22T17:42:38.589Z,101174.78
2022-10-22T17:44:12.178Z,101174.00
2022-10-22T17:45:43.794Z,101164.47
2022-10-22T17:47:15.531Z,101168.25
2022-10-22T17:48:49.656Z,101171.94
2022-10-22T17:50:22.746Z,101171.94
2022-10-22T17:51:54.566Z,101168.53
2022-10-22T17:53:26.356Z,101175.75
2022-10-22T17:54:58.013Z,101175.81
2022-10-22T17:56:30.296Z,101174.19
2022-10-22T17:58:02.659Z,101174.28
2022-10-22T17:59:35.161Z,101175.38
2022-10-22T18:01:07.164Z,101172.94
2022-10-22T18:02:39.922Z,101172.94
2022-10-22T18:04:14.804Z,101179.19
2022-10-22T18:05:47.866Z,101173.78
2022-10-22T18:07:20.728Z,101177.47